Time;durP1;ratioP1;P1;durP2;ratioP2;P2;SDS_P1;SDS_P2;PMS_P1;PMS_P2;Temp;Humidity;BMP_temperature;BMP_pressure;BME280_temperature;BME280_humidity;BME280_pressure;Samples;Min_cycle;Max_cycle;Signal;HPM_P1;HPM_P2
2023/02/18 00:01:55;;;;;;;34.40;13.52;;;10.90;99.90;;;;;;4879619;29;20037;-71
2023/02/18 00:04:23;;;;;;;40.45;13.32;;;10.80;99.90;;;;;;4878136;29;20076;-72
2023/02/18 00:06:48;;;;;;;43.53;14.77;;;10.80;99.90;;;;;;4878830;29;20048;-72
2023/02/18 00:09:14;;;;;;;39.10;14.15;;;10.80;99.90;;;;;;4879625;29;20169;-71
2023/02/18 00:11:40;;;;;;;53.58;15.48;;;10.80;99.90;;;;;;4875762;29;20208;-72
2023/02/18 00:14:10;;;;;;;51.67;14.40;;;10.80;99.90;;;;;;4879169;29;20462;-71
2023/02/18 00:16:36;;;;;;;37.28;14.48;;;10.80;99.90;;;;;;4879357;29;20104;-72
2023/02/18 00:19:05;;;;;;;45.85;15.35;;;10.80;99.90;;;;;;4878433;29;20197;-72
2023/02/18 00:21:32;;;;;;;45.80;14.65;;;10.70;99.90;;;;;;4878098;29;20036;-72
2023/02/18 00:23:58;;;;;;;44.15;14.88;;;10.70;99.90;;;;;;4879304;29;20041;-72
2023/02/18 00:26:24;;;;;;;46.55;17.67;;;10.60;99.90;;;;;;4879343;29;20112;-72
2023/02/18 00:28:51;;;;;;;53.70;16.02;;;10.60;99.90;;;;;;4879283;29;20049;-71
2023/02/18 00:31:21;;;;;;;53.63;17.00;;;10.50;99.90;;;;;;4879305;29;20418;-72
2023/02/18 00:33:47;;;;;;;56.33;17.40;;;10.50;99.90;;;;;;4879087;29;20289;-73
2023/02/18 00:36:15;;;;;;;57.35;18.05;;;10.60;99.90;;;;;;4879476;29;20033;-75
2023/02/18 00:38:49;;;;;;;52.67;15.75;;;10.50;99.90;;;;;;4878351;29;20021;-72
2023/02/18 00:41:15;;;;;;;51.88;16.20;;;10.50;99.90;;;;;;4878034;29;20476;-72
2023/02/18 00:43:42;;;;;;;54.05;16.08;;;10.60;99.90;;;;;;4879458;29;20097;-72
2023/02/18 00:46:08;;;;;;;50.67;15.93;;;10.60;99.90;;;;;;4879433;29;20083;-72
2023/02/18 00:48:34;;;;;;;44.42;15.18;;;10.50;99.90;;;;;;4879251;29;20057;-73
2023/02/18 00:51:01;;;;;;;42.92;14.60;;;10.50;99.90;;;;;;4875239;29;20073;-72
2023/02/18 00:53:28;;;;;;;46.70;14.25;;;10.50;99.90;;;;;;4879169;29;20037;-74
2023/02/18 00:55:53;;;;;;;50.53;14.70;;;10.50;99.90;;;;;;4878975;29;20124;-72
2023/02/18 00:58:19;;;;;;;40.15;13.02;;;10.40;99.90;;;;;;4879146;29;20140;-72
2023/02/18 01:00:46;;;;;;;35.10;13.70;;;10.40;99.90;;;;;;4879167;29;20037;-72
2023/02/18 01:03:13;;;;;;;34.97;13.80;;;10.30;99.90;;;;;;4879176;29;20489;-72
2023/02/18 01:05:40;;;;;;;35.78;13.05;;;10.30;99.90;;;;;;4878786;29;20057;-72
2023/02/18 01:08:07;;;;;;;38.10;12.95;;;10.30;99.90;;;;;;4879011;29;20044;-72
2023/02/18 01:10:34;;;;;;;44.45;13.98;;;10.30;99.90;;;;;;4879087;29;20069;-72
2023/02/18 01:13:00;;;;;;;30.92;11.15;;;10.30;99.90;;;;;;4879147;29;20044;-70
2023/02/18 01:15:26;;;;;;;39.15;12.85;;;10.20;99.90;;;;;;4879182;29;20144;-72
2023/02/18 01:17:51;;;;;;;30.13;10.00;;;10.10;99.90;;;;;;4880692;29;20037;-73
2023/02/18 01:20:18;;;;;;;31.50;10.68;;;10.20;99.90;;;;;;4882205;29;20378;-72
2023/02/18 01:22:44;;;;;;;31.85;11.73;;;10.20;99.90;;;;;;4882458;29;20375;-73
2023/02/18 01:25:10;;;;;;;37.35;12.07;;;10.20;99.90;;;;;;4881045;29;20033;-72
2023/02/18 01:27:37;;;;;;;31.73;12.57;;;10.10;99.90;;;;;;4882188;29;20061;-73
2023/02/18 01:30:04;;;;;;;31.05;11.45;;;10.20;99.90;;;;;;4878270;29;20148;-72
2023/02/18 01:32:30;;;;;;;31.23;11.18;;;10.10;99.90;;;;;;4882195;29;20084;-72
2023/02/18 01:34:56;;;;;;;35.33;12.15;;;10.20;99.90;;;;;;4880734;29;20044;-71
2023/02/18 01:37:22;;;;;;;33.55;12.68;;;10.20;99.90;;;;;;4882080;29;20036;-73
2023/02/18 01:39:47;;;;;;;29.30;11.98;;;10.20;99.90;;;;;;4882061;29;20043;-72
2023/02/18 01:42:19;;;;;;;31.58;11.45;;;10.20;99.90;;;;;;4881956;29;20127;-73
2023/02/18 01:44:47;;;;;;;30.80;11.70;;;10.20;99.90;;;;;;4882037;29;20497;-72
2023/02/18 01:47:13;;;;;;;33.42;12.10;;;10.20;99.90;;;;;;4881957;29;20029;-72
2023/02/18 01:49:40;;;;;;;39.40;13.35;;;10.20;99.90;;;;;;4882036;29;20041;-71
2023/02/18 01:52:09;;;;;;;36.92;12.90;;;10.20;99.90;;;;;;4880615;29;20433;-71
2023/02/18 01:54:40;;;;;;;37.03;12.57;;;10.20;99.90;;;;;;4881922;29;20085;-71
2023/02/18 01:57:10;;;;;;;31.73;10.98;;;10.20;99.90;;;;;;4880589;29;20025;-72
2023/02/18 01:59:44;;;;;;;42.88;13.65;;;10.20;99.90;;;;;;4881665;29;20048;-72
2023/02/18 02:02:16;;;;;;;41.38;13.63;;;10.20;99.90;;;;;;4881724;29;20041;-73
2023/02/18 02:04:42;;;;;;;41.67;12.15;;;10.20;99.90;;;;;;4881311;29;20083;-73
2023/02/18 02:07:09;;;;;;;32.88;12.18;;;10.20;99.90;;;;;;4881552;29;20037;-72
2023/02/18 02:09:36;;;;;;;44.47;12.43;;;10.20;99.90;;;;;;4881432;29;20033;-72
2023/02/18 02:12:36;;;;;;;39.03;13.70;;;10.20;99.90;;;;;;4881518;29;20056;-72
2023/02/18 02:15:15;;;;;;;34.95;13.13;;;10.20;99.90;;;;;;4876998;29;20084;-72
2023/02/18 02:18:03;;;;;;;35.78;13.00;;;10.20;99.90;;;;;;4880402;29;20128;-72
2023/02/18 02:21:00;;;;;;;33.05;13.75;;;10.30;99.90;;;;;;4881512;29;20036;-72
2023/02/18 02:23:47;;;;;;;45.22;14.52;;;10.20;99.90;;;;;;4881351;29;20033;-72
2023/02/18 02:26:34;;;;;;;30.45;10.48;;;10.10;99.90;;;;;;4881331;29;20025;-72
2023/02/18 02:29:30;;;;;;;44.63;13.90;;;10.20;99.90;;;;;;4878999;29;20037;-73
2023/02/18 02:32:14;;;;;;;46.13;14.90;;;10.20;99.90;;;;;;4879854;29;20371;-73
2023/02/18 02:34:55;;;;;;;47.88;13.45;;;10.20;99.90;;;;;;4879905;29;20481;-73
2023/02/18 02:37:54;;;;;;;41.80;13.98;;;10.20;99.90;;;;;;4879826;29;20033;-72
2023/02/18 02:40:35;;;;;;;40.25;12.77;;;10.20;99.90;;;;;;4880982;29;20498;-72
2023/02/18 02:43:17;;;;;;;35.22;13.98;;;10.20;99.90;;;;;;4881150;29;20021;-73
2023/02/18 02:45:54;;;;;;;33.35;14.18;;;10.20;99.90;;;;;;4878880;29;20090;-73
2023/02/18 02:48:41;;;;;;;39.88;14.98;;;10.20;99.90;;;;;;4878855;29;20045;-73
2023/02/18 02:51:14;;;;;;;24.87;9.97;;;10.20;99.90;;;;;;4879031;29;20037;-72
2023/02/18 02:53:42;;;;;;;39.13;13.43;;;10.20;99.90;;;;;;4878731;29;20037;-72
2023/02/18 02:56:17;;;;;;;46.15;15.63;;;10.20;99.90;;;;;;4878766;29;20059;-72
2023/02/18 02:58:47;;;;;;;47.00;14.35;;;10.30;99.90;;;;;;4878563;29;20134;-73
2023/02/18 03:01:54;;;;;;;49.88;14.70;;;10.30;99.90;;;;;;4860865;29;20098;-72
2023/02/18 03:04:56;;;;;;;43.38;13.55;;;10.30;99.90;;;;;;4876677;29;20067;-73
2023/02/18 03:07:57;;;;;;;37.53;13.75;;;10.40;99.90;;;;;;4869957;29;20106;-72
2023/02/18 03:10:56;;;;;;;34.95;12.50;;;10.40;99.90;;;;;;4862743;29;20037;-71
2023/02/18 03:13:49;;;;;;;30.38;12.02;;;10.40;99.90;;;;;;4825804;29;20052;-72
2023/02/18 03:16:20;;;;;;;33.13;12.05;;;10.40;99.90;;;;;;4853400;29;20052;-72
2023/02/18 03:18:49;;;;;;;51.45;15.55;;;10.50;99.90;;;;;;4880466;29;20115;-73
2023/02/18 03:21:32;;;;;;;42.15;13.55;;;10.40;99.90;;;;;;4880402;29;20040;-72
2023/02/18 03:24:09;;;;;;;42.83;11.63;;;10.40;99.90;;;;;;4880328;29;20127;-73
2023/02/18 03:26:38;;;;;;;32.28;12.05;;;10.50;99.90;;;;;;4880177;29;20493;-72
2023/02/18 03:29:08;;;;;;;29.88;9.43;;;10.50;99.90;;;;;;4880007;29;20063;-71
2023/02/18 03:31:37;;;;;;;35.42;10.85;;;10.50;99.90;;;;;;4880201;29;20057;-72
2023/02/18 03:34:08;;;;;;;33.65;9.65;;;10.50;99.90;;;;;;4880120;29;20111;-72
2023/02/18 03:36:35;;;;;;;20.35;7.32;;;10.40;99.90;;;;;;4879918;29;20116;-72
2023/02/18 03:39:13;;;;;;;20.70;6.93;;;10.40;99.90;;;;;;4880038;29;20049;-72
2023/02/18 03:41:38;;;;;;;14.98;5.60;;;10.40;99.90;;;;;;4879812;29;20040;-72
2023/02/18 03:44:07;;;;;;;13.60;5.55;;;10.40;99.90;;;;;;4879836;29;20398;-73
2023/02/18 03:46:34;;;;;;;10.70;5.13;;;10.50;99.90;;;;;;4878489;29;20131;-72
2023/02/18 03:49:00;;;;;;;10.65;4.68;;;10.50;99.90;;;;;;4858958;29;20045;-71
2023/02/18 03:51:26;;;;;;;10.00;4.28;;;10.50;99.90;;;;;;4858956;29;20045;-72
2023/02/18 03:53:51;;;;;;;10.40;4.50;;;10.40;99.90;;;;;;4859047;29;20049;-73
2023/02/18 03:56:17;;;;;;;12.07;4.25;;;10.40;99.90;;;;;;4858842;29;20093;-71
2023/02/18 03:58:43;;;;;;;8.48;3.40;;;10.50;99.90;;;;;;4858988;29;20042;-70
2023/02/18 04:01:09;;;;;;;10.80;4.57;;;10.50;99.90;;;;;;4843298;29;20038;-71
2023/02/18 04:03:35;;;;;;;14.05;4.68;;;10.50;99.90;;;;;;4858808;29;20037;-71
2023/02/18 04:06:00;;;;;;;10.48;4.75;;;10.40;99.90;;;;;;4858845;29;20128;-70
2023/02/18 04:08:26;;;;;;;12.48;4.90;;;10.50;99.90;;;;;;4858649;29;20075;-71
2023/02/18 04:10:51;;;;;;;11.73;5.18;;;10.50;99.90;;;;;;4858646;29;20033;-72
2023/02/18 04:13:17;;;;;;;10.57;4.63;;;10.50;99.90;;;;;;4858743;29;20049;-70
2023/02/18 04:15:44;;;;;;;10.30;4.72;;;10.50;99.90;;;;;;4858609;29;20049;-71
2023/02/18 04:18:09;;;;;;;9.70;4.80;;;10.60;99.90;;;;;;4858754;29;20048;-69
2023/02/18 04:20:36;;;;;;;11.27;4.57;;;10.60;99.90;;;;;;4874157;29;20049;-70
2023/02/18 04:23:02;;;;;;;12.65;4.88;;;10.50;99.90;;;;;;4879338;29;20032;-71
2023/02/18 04:25:28;;;;;;;12.13;4.80;;;10.60;99.90;;;;;;4875469;29;20041;-72
2023/02/18 04:27:53;;;;;;;11.82;5.18;;;10.60;99.90;;;;;;4879402;29;20037;-71
2023/02/18 04:30:19;;;;;;;13.20;4.85;;;10.60;99.90;;;;;;4879337;29;20089;-72
2023/02/18 04:32:45;;;;;;;8.05;4.72;;;10.60;99.90;;;;;;4879295;29;20089;-70
2023/02/18 04:35:10;;;;;;;11.10;5.13;;;10.50;99.90;;;;;;4879099;29;20454;-72
2023/02/18 04:37:36;;;;;;;11.82;5.47;;;10.50;99.90;;;;;;4879338;29;20401;-72
2023/02/18 04:40:02;;;;;;;10.18;5.82;;;10.60;99.90;;;;;;4873852;29;20402;-72
2023/02/18 04:42:28;;;;;;;14.65;5.63;;;10.50;99.90;;;;;;4879358;29;20092;-71
2023/02/18 04:44:54;;;;;;;11.63;5.30;;;10.50;99.90;;;;;;4879208;29;20477;-72
2023/02/18 04:47:19;;;;;;;11.90;6.03;;;10.50;99.90;;;;;;4879134;29;20037;-71
2023/02/18 04:49:45;;;;;;;11.23;6.05;;;10.50;99.90;;;;;;4878747;29;20048;-71
2023/02/18 04:52:11;;;;;;;10.48;5.70;;;10.60;99.90;;;;;;4880374;29;20101;-72
2023/02/18 04:54:38;;;;;;;15.07;6.65;;;10.60;99.90;;;;;;4883150;29;20036;-72
2023/02/18 04:57:03;;;;;;;13.40;6.75;;;10.60;99.90;;;;;;4883156;29;20036;-71
2023/02/18 04:59:29;;;;;;;12.23;6.63;;;10.60;99.90;;;;;;4883254;29;20029;-72
2023/02/18 05:01:55;;;;;;;16.73;7.45;;;10.60;99.90;;;;;;4882248;29;20429;-71
2023/02/18 05:04:20;;;;;;;12.13;7.30;;;10.60;99.90;;;;;;4884643;29;20021;-72
2023/02/18 05:06:46;;;;;;;12.95;7.63;;;10.60;99.90;;;;;;4885259;29;20108;-71
2023/02/18 05:09:13;;;;;;;14.43;7.85;;;10.50;99.90;;;;;;4884827;29;20083;-72
2023/02/18 05:11:39;;;;;;;12.98;7.68;;;10.50;99.90;;;;;;4886229;29;20033;-72
2023/02/18 05:14:04;;;;;;;18.60;9.23;;;10.50;99.90;;;;;;4884647;29;20509;-72
2023/02/18 05:16:30;;;;;;;16.60;9.70;;;10.50;99.90;;;;;;4877330;29;20029;-72
2023/02/18 05:18:56;;;;;;;18.45;10.20;;;10.50;99.90;;;;;;4900334;29;20092;-72
2023/02/18 05:21:21;;;;;;;23.65;10.52;;;10.40;99.90;;;;;;4890437;29;20080;-72
2023/02/18 05:23:47;;;;;;;21.83;10.65;;;10.40;99.90;;;;;;4888608;29;20028;-73
2023/02/18 05:26:13;;;;;;;21.25;11.18;;;10.50;99.90;;;;;;4904373;29;20127;-73
2023/02/18 05:28:38;;;;;;;23.85;11.52;;;10.50;99.90;;;;;;4891775;29;20064;-73
2023/02/18 05:31:04;;;;;;;23.67;12.02;;;10.50;99.90;;;;;;4895063;29;20580;-73
2023/02/18 05:33:32;;;;;;;28.55;11.95;;;10.50;99.90;;;;;;4872113;29;20057;-73
2023/02/18 05:35:58;;;;;;;25.30;12.35;;;10.60;99.90;;;;;;4871756;29;20051;-73
2023/02/18 05:38:24;;;;;;;26.02;11.38;;;10.70;99.90;;;;;;4885061;29;20116;-72
2023/02/18 05:40:49;;;;;;;32.72;12.90;;;10.70;99.90;;;;;;4885637;29;20029;-71
2023/02/18 05:43:15;;;;;;;28.23;12.00;;;10.70;99.90;;;;;;4885869;29;20489;-72
2023/02/18 05:45:41;;;;;;;24.88;12.27;;;10.70;99.90;;;;;;4883875;29;20354;-72
2023/02/18 05:48:06;;;;;;;25.50;12.93;;;10.70;99.90;;;;;;4891180;29;20537;-72
2023/02/18 05:50:32;;;;;;;22.45;11.60;;;10.70;99.90;;;;;;4905783;29;20113;-73
2023/02/18 05:52:58;;;;;;;24.23;12.13;;;10.70;99.90;;;;;;4904620;29;20036;-73
2023/02/18 05:55:24;;;;;;;20.55;11.27;;;10.70;99.90;;;;;;4899863;29;20040;-72
2023/02/18 05:57:50;;;;;;;25.27;11.10;;;10.70;99.90;;;;;;4896151;29;20115;-72
2023/02/18 06:00:16;;;;;;;20.45;10.02;;;10.60;99.90;;;;;;4905372;29;20031;-71
2023/02/18 06:02:42;;;;;;;16.38;9.25;;;10.70;99.90;;;;;;4899359;29;20054;-72
2023/02/18 06:05:08;;;;;;;22.70;10.45;;;10.70;99.90;;;;;;4888192;29;20037;-72
2023/02/18 06:07:34;;;;;;;21.23;10.30;;;10.70;99.90;;;;;;4887660;29;20509;-73
2023/02/18 06:10:00;;;;;;;24.10;11.15;;;10.60;99.90;;;;;;4875694;29;20074;-74
2023/02/18 06:12:26;;;;;;;21.52;10.32;;;10.70;99.90;;;;;;4899595;29;20120;-71
2023/02/18 06:14:52;;;;;;;25.10;10.55;;;10.80;99.90;;;;;;4891970;29;20044;-74
2023/02/18 06:17:18;;;;;;;22.80;10.85;;;10.80;99.90;;;;;;4883238;29;20132;-71
2023/02/18 06:19:44;;;;;;;25.02;11.60;;;10.80;99.90;;;;;;4871305;29;20614;-73
2023/02/18 06:22:11;;;;;;;26.52;11.00;;;10.70;99.90;;;;;;4846403;29;20046;-73
2023/02/18 06:24:36;;;;;;;23.98;11.52;;;10.70;99.90;;;;;;4807177;29;20055;-72
2023/02/18 06:27:03;;;;;;;24.67;11.23;;;10.80;99.90;;;;;;4816865;29;20547;-72
2023/02/18 06:29:30;;;;;;;20.90;10.38;;;10.80;99.90;;;;;;4808082;29;20053;-72
2023/02/18 06:31:56;;;;;;;29.50;11.73;;;10.80;99.90;;;;;;4818079;29;20562;-73
2023/02/18 06:34:23;;;;;;;22.70;11.25;;;10.80;99.90;;;;;;4822612;29;20090;-72
2023/02/18 06:36:48;;;;;;;25.85;10.25;;;10.70;99.90;;;;;;4806150;29;20103;-71
2023/02/18 06:39:14;;;;;;;21.95;9.90;;;10.80;99.90;;;;;;4815377;29;20143;-72
2023/02/18 06:41:40;;;;;;;26.75;11.13;;;10.70;99.90;;;;;;4816678;29;20041;-72
2023/02/18 06:44:06;;;;;;;26.25;10.88;;;10.60;99.90;;;;;;4805811;29;20039;-72
2023/02/18 06:46:31;;;;;;;27.30;10.40;;;10.60;99.90;;;;;;4818205;29;20407;-73
2023/02/18 06:48:57;;;;;;;24.73;9.85;;;10.60;99.90;;;;;;4820925;29;20054;-72
2023/02/18 06:51:24;;;;;;;24.98;9.80;;;10.60;99.90;;;;;;4823892;29;20050;-71
2023/02/18 06:53:50;;;;;;;23.23;9.63;;;10.60;99.90;;;;;;4823756;29;20530;-71
2023/02/18 06:56:16;;;;;;;24.60;9.77;;;10.60;99.90;;;;;;4823328;29;20046;-72
2023/02/18 06:58:42;;;;;;;28.98;10.43;;;10.60;99.90;;;;;;4823303;29;20193;-71
2023/02/18 07:01:08;;;;;;;25.33;9.25;;;10.60;99.90;;;;;;4828585;29;20050;-72
2023/02/18 07:03:34;;;;;;;22.85;9.13;;;10.60;99.90;;;;;;4862348;29;20118;-71
2023/02/18 07:05:59;;;;;;;25.25;8.85;;;10.60;99.90;;;;;;4861980;29;20025;-73
2023/02/18 07:08:26;;;;;;;21.25;8.07;;;10.50;99.90;;;;;;4873768;29;20044;-72
2023/02/18 07:10:51;;;;;;;26.38;7.82;;;10.50;99.90;;;;;;4879900;29;20382;-72
2023/02/18 07:13:17;;;;;;;21.35;7.38;;;10.50;99.90;;;;;;4880363;29;20029;-71
2023/02/18 07:15:43;;;;;;;17.98;7.35;;;10.50;99.90;;;;;;4879498;29;20033;-72
2023/02/18 07:18:08;;;;;;;26.05;7.88;;;10.60;99.90;;;;;;4875271;29;20066;-72
2023/02/18 07:20:34;;;;;;;25.05;8.10;;;10.60;99.90;;;;;;4874896;29;20108;-71
2023/02/18 07:23:00;;;;;;;23.30;7.35;;;10.50;99.90;;;;;;4880284;29;20036;-72
2023/02/18 07:25:25;;;;;;;23.58;6.38;;;10.60;99.90;;;;;;4879800;29;20071;-72
2023/02/18 07:27:51;;;;;;;19.20;6.90;;;10.60;99.90;;;;;;4880010;29;20512;-72
2023/02/18 07:30:18;;;;;;;23.13;7.03;;;10.60;99.90;;;;;;4879464;29;20045;-71
2023/02/18 07:32:44;;;;;;;19.75;5.80;;;10.60;99.90;;;;;;4879904;29;20040;-72
2023/02/18 07:35:13;;;;;;;16.02;6.25;;;10.70;99.90;;;;;;4878551;29;20037;-72
2023/02/18 07:37:42;;;;;;;18.85;5.20;;;10.70;99.90;;;;;;4861350;29;20091;-73
2023/02/18 07:40:09;;;;;;;22.58;4.68;;;10.70;99.90;;;;;;4861253;29;20037;-72
2023/02/18 07:42:35;;;;;;;19.13;5.72;;;10.60;99.90;;;;;;4864456;29;20033;-72
2023/02/18 07:45:00;;;;;;;14.77;4.50;;;10.70;99.90;;;;;;4879945;29;20177;-71
2023/02/18 07:47:26;;;;;;;16.73;3.65;;;10.70;99.90;;;;;;4879808;29;20033;-75
2023/02/18 07:49:52;;;;;;;17.25;3.38;;;10.70;99.90;;;;;;4879244;29;20037;-72
2023/02/18 07:52:17;;;;;;;22.38;3.17;;;10.70;99.90;;;;;;4879984;29;20098;-72
2023/02/18 07:54:43;;;;;;;14.68;2.70;;;10.70;99.90;;;;;;4879480;29;20506;-71
2023/02/18 07:57:08;;;;;;;14.85;2.78;;;10.70;99.90;;;;;;4879801;29;20045;-72
2023/02/18 07:59:34;;;;;;;20.38;3.53;;;10.70;99.90;;;;;;4878685;29;20119;-73
2023/02/18 08:02:00;;;;;;;17.65;2.97;;;10.60;99.90;;;;;;4879128;29;20061;-72
2023/02/18 08:04:25;;;;;;;13.77;1.95;;;10.60;99.90;;;;;;4878993;29;20025;-71
2023/02/18 08:06:51;;;;;;;17.20;2.67;;;10.60;99.90;;;;;;4877749;29;20070;-70
2023/02/18 08:09:17;;;;;;;12.77;2.25;;;10.60;99.90;;;;;;4864298;29;20128;-72
2023/02/18 08:11:44;;;;;;;18.27;3.38;;;10.40;99.90;;;;;;4878356;29;20029;-72
2023/02/18 08:14:10;;;;;;;18.02;4.15;;;10.50;99.90;;;;;;4879499;29;20037;-73
2023/02/18 08:16:36;;;;;;;10.63;2.33;;;10.40;99.90;;;;;;4879379;29;20040;-72
2023/02/18 08:19:02;;;;;;;12.63;1.85;;;10.40;99.90;;;;;;4879359;29;20032;-72
2023/02/18 08:21:29;;;;;;;11.10;1.95;;;10.40;99.90;;;;;;4879680;29;20060;-73
2023/02/18 08:23:57;;;;;;;13.00;2.22;;;10.40;99.90;;;;;;4878053;29;20068;-73
2023/02/18 08:26:23;;;;;;;;;;;10.40;99.90;;;;;;4868037;29;20120;-71
2023/02/18 08:28:49;;;;;;;15.23;1.95;;;10.40;99.90;;;;;;4883136;29;19966;-73
2023/02/18 08:31:17;;;;;;;12.55;1.90;;;10.30;99.90;;;;;;4883387;29;20521;-72
2023/02/18 08:33:43;;;;;;;22.65;2.00;;;10.30;99.90;;;;;;4869835;29;20037;-73
2023/02/18 08:36:09;;;;;;;8.30;1.60;;;10.30;99.90;;;;;;4881350;29;20391;-72
2023/02/18 08:38:35;;;;;;;10.45;2.38;;;10.30;99.90;;;;;;4890513;29;20032;-72
2023/02/18 08:41:05;;;;;;;19.15;2.35;;;10.30;99.90;;;;;;4874965;29;20028;-72
2023/02/18 08:43:31;;;;;;;17.85;1.45;;;10.30;99.90;;;;;;4877274;29;20037;-72
2023/02/18 08:45:57;;;;;;;17.05;2.22;;;10.30;99.90;;;;;;4896910;29;20176;-72
2023/02/18 08:48:24;;;;;;;12.00;2.08;;;10.30;99.90;;;;;;4887325;29;20044;-73
2023/02/18 08:50:49;;;;;;;12.38;2.45;;;10.30;99.90;;;;;;4876146;29;20090;-72
2023/02/18 08:53:16;;;;;;;12.32;1.95;;;10.20;99.90;;;;;;4876748;29;20149;-73
2023/02/18 08:55:42;;;;;;;15.98;3.75;;;10.30;99.90;;;;;;4881187;29;20044;-71
2023/02/18 08:58:10;;;;;;;13.75;2.28;;;10.30;99.90;;;;;;4881687;29;20037;-73
2023/02/18 09:00:37;;;;;;;4.88;1.50;;;10.30;99.90;;;;;;4875974;29;20037;-70
2023/02/18 09:03:03;;;;;;;11.02;2.08;;;10.40;99.90;;;;;;4878168;29;20101;-73
2023/02/18 09:05:28;;;;;;;14.48;2.00;;;10.40;99.90;;;;;;4874661;29;20037;-75
2023/02/18 09:07:54;;;;;;;4.68;1.33;;;10.40;99.90;;;;;;4877683;29;20132;-74
2023/02/18 09:10:21;;;;;;;9.68;1.65;;;10.40;99.90;;;;;;4876618;29;20088;-74
2023/02/18 09:12:47;;;;;;;16.27;2.30;;;10.50;99.90;;;;;;4881152;29;20033;-73
2023/02/18 09:15:13;;;;;;;9.75;1.90;;;10.50;99.90;;;;;;4881975;29;20036;-75
2023/02/18 09:17:39;;;;;;;7.50;1.88;;;10.50;99.90;;;;;;4881082;29;20097;-76
2023/02/18 09:20:06;;;;;;;18.85;1.80;;;10.50;99.90;;;;;;4870673;29;20474;-75
2023/02/18 09:22:32;;;;;;;17.38;2.92;;;10.50;99.90;;;;;;4879958;29;20489;-75
2023/02/18 09:24:57;;;;;;;11.30;1.98;;;10.40;99.90;;;;;;4875942;29;20044;-74
2023/02/18 09:27:23;;;;;;;8.18;1.40;;;10.40;99.90;;;;;;4881532;29;20060;-74
2023/02/18 09:29:49;;;;;;;7.40;1.70;;;10.50;99.90;;;;;;4881670;29;20040;-73
2023/02/18 09:32:16;;;;;;;6.30;1.98;;;10.50;99.90;;;;;;4877339;29;20085;-73
2023/02/18 09:34:43;;;;;;;5.97;1.90;;;10.50;99.90;;;;;;4880121;29;20131;-74
2023/02/18 09:37:09;;;;;;;13.20;1.80;;;10.50;99.90;;;;;;4874572;29;20036;-74
2023/02/18 09:39:35;;;;;;;11.32;1.98;;;10.50;99.90;;;;;;4878144;29;20394;-74
2023/02/18 09:42:11;;;;;;;14.85;1.92;;;10.60;99.90;;;;;;4884601;29;20150;-74
2023/02/18 09:44:44;;;;;;;7.53;1.50;;;10.70;99.90;;;;;;4878632;29;20482;-73
2023/02/18 09:47:14;;;;;;;13.98;1.83;;;10.70;99.90;;;;;;4869683;29;20481;-73
2023/02/18 09:49:46;;;;;;;14.88;1.83;;;10.80;99.90;;;;;;4882060;29;20055;-74
2023/02/18 09:52:19;;;;;;;19.23;2.40;;;10.70;99.90;;;;;;4880931;29;20047;-73
2023/02/18 09:54:45;;;;;;;13.20;1.58;;;10.80;99.90;;;;;;4880531;29;20029;-74
2023/02/18 09:57:30;;;;;;;26.52;2.60;;;10.80;99.90;;;;;;4882001;29;20406;-73
2023/02/18 10:00:05;;;;;;;8.43;1.75;;;10.80;99.90;;;;;;4883579;29;20034;-73
2023/02/18 10:02:31;;;;;;;8.57;2.55;;;10.80;99.90;;;;;;4896053;29;20051;-73
2023/02/18 10:04:57;;;;;;;16.02;3.08;;;10.70;99.90;;;;;;4897567;29;20032;-74
2023/02/18 10:07:31;;;;;;;16.90;3.70;;;10.80;99.90;;;;;;4881476;29;20037;-73
2023/02/18 10:10:07;;;;;;;10.75;2.80;;;10.70;99.90;;;;;;4869212;29;20070;-73
2023/02/18 10:12:33;;;;;;;13.93;1.95;;;10.80;99.90;;;;;;4861506;29;20080;-73
2023/02/18 10:15:01;;;;;;;17.67;2.83;;;10.90;99.90;;;;;;4863736;29;20033;-75
2023/02/18 10:17:30;;;;;;;16.00;2.85;;;10.90;99.90;;;;;;4860479;29;20125;-73
2023/02/18 10:19:59;;;;;;;13.35;2.40;;;11.00;99.90;;;;;;4845551;29;20034;-74
2023/02/18 10:22:26;;;;;;;30.02;3.40;;;11.00;99.90;;;;;;4860829;29;20038;-74
2023/02/18 10:24:56;;;;;;;16.05;3.08;;;10.90;99.90;;;;;;4860868;29;20636;-74
2023/02/18 10:27:29;;;;;;;13.57;2.55;;;11.00;99.90;;;;;;4860508;29;20098;-74
2023/02/18 10:29:59;;;;;;;12.50;2.00;;;11.00;99.90;;;;;;4858408;29;20448;-74
2023/02/18 10:32:35;;;;;;;11.95;2.30;;;11.00;99.90;;;;;;4865503;29;20037;-75
2023/02/18 10:35:23;;;;;;;20.90;2.80;;;11.10;99.90;;;;;;4845061;29;20140;-74
2023/02/18 10:37:49;;;;;;;16.02;2.28;;;11.10;99.90;;;;;;4860387;29;20068;-73
2023/02/18 10:41:05;;;;;;;31.08;3.70;;;11.30;99.90;;;;;;4862678;29;20049;-73
2023/02/18 10:43:55;;;;;;;17.15;2.10;;;11.20;99.90;;;;;;4805372;29;20043;-74
2023/02/18 10:46:36;;;;;;;12.40;2.83;;;11.30;99.90;;;;;;4797136;29;20662;-73
2023/02/18 10:49:04;;;;;;;29.63;2.50;;;11.30;99.90;;;;;;4875279;29;20053;-73
2023/02/18 10:51:35;;;;;;;14.18;2.55;;;11.40;99.90;;;;;;4880384;29;20486;-72
2023/02/18 10:54:01;;;;;;;24.30;2.85;;;11.40;99.90;;;;;;4888901;29;20481;-73
2023/02/18 10:56:53;;;;;;;8.23;2.17;;;11.40;99.90;;;;;;4893538;29;20108;-73
2023/02/18 10:59:30;;;;;;;24.77;2.75;;;11.40;99.90;;;;;;4898747;29;20045;-73
2023/02/18 11:01:59;;;;;;;16.52;2.50;;;11.40;99.90;;;;;;4886092;29;20385;-70
2023/02/18 11:04:38;;;;;;;15.68;2.60;;;11.60;99.90;;;;;;4880443;29;20036;-71
2023/02/18 11:07:19;;;;;;;21.75;2.53;;;11.50;99.90;;;;;;4879082;29;20037;-70
2023/02/18 11:09:48;;;;;;;12.27;2.65;;;11.60;99.90;;;;;;4880424;29;20093;-71
2023/02/18 11:12:22;;;;;;;12.32;1.85;;;11.70;99.90;;;;;;4879066;29;20040;-71
2023/02/18 11:15:03;;;;;;;15.75;2.88;;;11.60;99.90;;;;;;4880435;29;20036;-71
2023/02/18 11:17:36;;;;;;;12.13;1.50;;;11.60;99.90;;;;;;4880321;29;20056;-71
2023/02/18 11:20:29;;;;;;;13.93;3.00;;;11.60;99.90;;;;;;4880210;29;20108;-72
2023/02/18 11:23:19;;;;;;;14.95;2.53;;;11.70;99.90;;;;;;4860289;29;20033;-72
2023/02/18 11:26:06;;;;;;;14.30;1.90;;;11.70;99.90;;;;;;4867275;29;20044;-72
2023/02/18 11:28:45;;;;;;;15.75;2.58;;;11.80;99.90;;;;;;4874105;29;20096;-72
2023/02/18 11:31:20;;;;;;;15.27;2.22;;;11.80;99.90;;;;;;4880164;29;20028;-72
2023/02/18 11:33:58;;;;;;;14.85;2.53;;;11.80;99.90;;;;;;4879647;29;20037;-72
2023/02/18 11:36:26;;;;;;;;;;;11.90;99.90;;;;;;4880373;29;20072;-71
2023/02/18 11:39:06;;;;;;;13.10;2.17;;;11.80;99.90;;;;;;4879978;29;19908;-72
2023/02/18 11:42:02;;;;;;;13.10;1.83;;;11.70;99.90;;;;;;4879489;29;20037;-71
2023/02/18 11:44:46;;;;;;;10.02;2.55;;;11.80;99.90;;;;;;4879986;29;20554;-72
2023/02/18 11:47:12;;;;;;;9.57;1.95;;;11.70;99.90;;;;;;4879968;29;20040;-71
2023/02/18 11:49:40;;;;;;;16.73;2.42;;;11.70;99.90;;;;;;4879883;29;20482;-71
2023/02/18 11:52:26;;;;;;;16.38;1.92;;;11.70;99.90;;;;;;4879939;29;20109;-72
2023/02/18 11:55:22;;;;;;;11.15;1.70;;;11.80;99.90;;;;;;4879561;29;20033;-71
2023/02/18 11:57:58;;;;;;;12.80;1.95;;;11.90;99.90;;;;;;4878489;29;20044;-75
2023/02/18 12:00:41;;;;;;;8.73;2.60;;;12.00;99.90;;;;;;4879506;29;20033;-70
2023/02/18 12:03:18;;;;;;;14.30;3.03;;;12.20;99.90;;;;;;4861255;29;20040;-72
2023/02/18 12:05:45;;;;;;;30.05;4.72;;;12.40;99.90;;;;;;4861161;29;20045;-69
2023/02/18 12:08:21;;;;;;;11.93;2.65;;;12.50;99.90;;;;;;4859863;29;20045;-71
2023/02/18 12:10:53;;;;;;;11.43;2.05;;;12.60;99.90;;;;;;4875111;29;20052;-70
2023/02/18 12:13:25;;;;;;;8.00;1.60;;;12.70;99.90;;;;;;4879072;29;20042;-71
2023/02/18 12:16:09;;;;;;;13.10;2.17;;;12.60;99.90;;;;;;4879206;29;20372;-71
2023/02/18 12:19:03;;;;;;;7.25;2.25;;;12.60;99.90;;;;;;4879285;29;20033;-70
2023/02/18 12:21:52;;;;;;;10.18;1.98;;;12.40;99.90;;;;;;4869983;29;20034;-71
2023/02/18 12:24:36;;;;;;;19.70;2.42;;;12.30;99.90;;;;;;4867635;29;20089;-71
2023/02/18 12:27:34;;;;;;;9.23;2.00;;;12.30;99.90;;;;;;4878792;29;20421;-71
2023/02/18 12:30:37;;;;;;;18.88;2.03;;;12.30;99.90;;;;;;4879003;29;20123;-72
2023/02/18 12:33:31;;;;;;;13.70;2.03;;;12.40;99.90;;;;;;4871804;29;20026;-70
2023/02/18 12:36:45;;;;;;;13.20;1.75;;;12.40;99.90;;;;;;4870161;29;20084;-71
2023/02/18 12:39:28;;;;;;;17.35;2.00;;;12.40;99.90;;;;;;4833373;29;20385;-71
2023/02/18 12:42:19;;;;;;;7.70;1.40;;;12.50;99.90;;;;;;4877160;29;20028;-71
2023/02/18 12:45:16;;;;;;;11.35;1.92;;;12.60;99.90;;;;;;4873346;29;20021;-73
2023/02/18 12:47:52;;;;;;;9.77;1.42;;;12.70;99.90;;;;;;4867816;29;20025;-71
2023/02/18 12:50:37;;;;;;;8.23;2.20;;;12.90;99.90;;;;;;4873105;29;20092;-74
2023/02/18 12:53:20;;;;;;;5.10;1.45;;;12.90;99.90;;;;;;4877652;29;20037;-71
2023/02/18 12:56:29;;;;;;;15.57;2.50;;;13.10;99.90;;;;;;4867530;29;20367;-70